Time;durP1;ratioP1;P1;durP2;ratioP2;P2;SDS_P1;SDS_P2;PMS_P1;PMS_P2;Temp;Humidity;BMP_temperature;BMP_pressure;BME280_temperature;BME280_humidity;BME280_pressure;Samples;Min_cycle;Max_cycle;Signal;HPM_P1;HPM_P2
2023/05/25 00:00:51;;;;;;;;;;;15.90;99.90;;;;;;5033415;28;19932;-39
2023/05/25 00:03:16;;;;;;;;;;;15.90;99.90;;;;;;5033244;28;19912;-39
2023/05/25 00:05:42;;;;;;;;;;;15.90;99.90;;;;;;5015258;28;20347;-40
2023/05/25 00:08:07;;;;;;;;;;;15.90;99.90;;;;;;5032856;28;19915;-39
2023/05/25 00:10:33;;;;;;;;;;;15.90;99.90;;;;;;5033114;28;19905;-39
2023/05/25 00:12:58;;;;;;;;;;;15.90;99.90;;;;;;5033230;28;19928;-39
2023/05/25 00:15:24;;;;;;;;;;;15.90;99.90;;;;;;5033068;28;19991;-39
2023/05/25 00:17:53;;;;;;;;;;;15.90;99.90;;;;;;5031586;28;20320;-39
2023/05/25 00:20:19;;;;;;;;;;;15.90;99.90;;;;;;5033381;28;19940;-39
2023/05/25 00:22:45;;;;;;;;;;;15.80;99.90;;;;;;5032867;28;19948;-39
2023/05/25 00:25:10;;;;;;;;;;;15.80;99.90;;;;;;5032830;28;19967;-39
2023/05/25 00:27:36;;;;;;;;;;;15.80;99.90;;;;;;5032223;28;19909;-38
2023/05/25 00:30:01;;;;;;;;;;;15.90;99.90;;;;;;5033000;28;20007;-38
2023/05/25 00:32:27;;;;;;;;;;;15.80;99.90;;;;;;5032826;28;19905;-39
2023/05/25 00:34:53;;;;;;;;;;;15.80;99.90;;;;;;5033134;28;19909;-40
2023/05/25 00:37:18;;;;;;;;;;;15.80;99.90;;;;;;5032111;28;19916;-39
2023/05/25 00:39:44;;;;;;;;;;;15.80;99.90;;;;;;5032820;28;19909;-40
2023/05/25 00:42:10;;;;;;;;;;;15.80;99.90;;;;;;5032603;28;19913;-39
2023/05/25 00:44:35;;;;;;;;;;;15.80;99.90;;;;;;5032410;28;19920;-39
2023/05/25 00:47:03;;;;;;;;;;;15.80;99.90;;;;;;5032064;28;20008;-39
2023/05/25 00:49:33;;;;;;;;;;;15.80;99.90;;;;;;5032441;28;19905;-38
2023/05/25 00:51:59;;;;;;;;;;;15.80;99.90;;;;;;5032277;28;19905;-39
2023/05/25 00:54:26;;;;;;;;;;;15.80;99.90;;;;;;5032252;28;19916;-40
2023/05/25 00:56:54;;;;;;;;;;;15.80;99.90;;;;;;5031823;28;19927;-40
2023/05/25 00:59:40;;;;;;;;;;;15.80;99.90;;;;;;5032445;28;19963;-40
2023/05/25 01:02:10;;;;;;;;;;;15.80;99.90;;;;;;5031887;28;19909;-39
2023/05/25 01:04:38;;;;;;;;;;;15.80;99.90;;;;;;5032037;28;19996;-39
2023/05/25 01:07:05;;;;;;;;;;;15.80;99.90;;;;;;5031697;28;19908;-39
2023/05/25 01:09:33;;;;;;;;;;;15.80;99.90;;;;;;5032109;28;19963;-39
2023/05/25 01:12:00;;;;;;;;;;;15.80;99.90;;;;;;5032063;28;20317;-38
2023/05/25 01:14:26;;;;;;;;;;;15.80;99.90;;;;;;5032004;28;19905;-38
2023/05/25 01:16:54;;;;;;;;;;;15.80;99.90;;;;;;5031453;28;19955;-39
2023/05/25 01:19:20;;;;;;;;;;;15.80;99.90;;;;;;5031863;28;19909;-39
2023/05/25 01:21:53;;;;;;;;;;;15.80;99.90;;;;;;5031883;28;19905;-39
2023/05/25 01:24:21;;;;;;;;;;;15.80;99.90;;;;;;5031825;28;19930;-39
2023/05/25 01:26:54;;;;;;;;;;;15.80;99.90;;;;;;5031233;28;19913;-39
2023/05/25 01:29:21;;;;;;;;;;;15.80;99.90;;;;;;5031557;28;19979;-38
2023/05/25 01:31:47;;;;;;;;;;;15.80;99.90;;;;;;5031804;28;19913;-39
2023/05/25 01:34:14;;;;;;;;;;;15.80;99.90;;;;;;5031781;28;20186;-39
2023/05/25 01:36:39;;;;;;;;;;;15.80;99.90;;;;;;5031170;28;20326;-39
2023/05/25 01:39:05;;;;;;;;;;;15.80;99.90;;;;;;5031687;28;19905;-39
2023/05/25 01:41:30;;;;;;;;;;;15.80;99.90;;;;;;5031662;28;19909;-39
2023/05/25 01:43:56;;;;;;;;;;;15.80;99.90;;;;;;5014159;28;19913;-39
2023/05/25 01:46:35;;;;;;;;;;;15.80;99.90;;;;;;5030927;28;20030;-40
2023/05/25 01:49:01;;;;;;;;;;;15.80;99.90;;;;;;5031568;28;19962;-39
2023/05/25 01:51:31;;;;;;;;;;;15.80;99.90;;;;;;5031476;28;19905;-38
2023/05/25 01:54:00;;;;;;;;;;;15.80;99.90;;;;;;5031551;28;19905;-39
2023/05/25 01:56:27;;;;;;;;;;;15.80;99.90;;;;;;5031059;28;20357;-39
2023/05/25 01:58:55;;;;;;;;;;;15.80;99.90;;;;;;5031457;28;19912;-38
2023/05/25 02:01:21;;;;;;;;;;;15.80;99.90;;;;;;5031376;28;19916;-39
2023/05/25 02:03:50;;;;;;;;;;;15.80;99.90;;;;;;5031337;28;19912;-40
2023/05/25 02:06:15;;;;;;;;;;;15.80;99.90;;;;;;5030764;28;19909;-39
2023/05/25 02:08:42;;;;;;;;;;;15.80;99.90;;;;;;5031322;28;19984;-39
2023/05/25 02:11:08;;;;;;;;;;;15.80;99.90;;;;;;5031220;28;19911;-40
2023/05/25 02:13:34;;;;;;;;;;;15.80;99.90;;;;;;5031218;28;20325;-39
2023/05/25 02:15:59;;;;;;;;;;;15.80;99.90;;;;;;5030920;28;20361;-37
2023/05/25 02:18:25;;;;;;;;;;;15.80;99.90;;;;;;5031250;28;19909;-39
2023/05/25 02:20:50;;;;;;;;;;;15.70;99.90;;;;;;5031209;28;20378;-39
2023/05/25 02:23:17;;;;;;;;;;;15.70;99.90;;;;;;5031212;28;19905;-39
2023/05/25 02:25:43;;;;;;;;;;;15.70;99.90;;;;;;5030885;28;19909;-39
2023/05/25 02:28:08;;;;;;;;;;;15.70;99.90;;;;;;5031059;28;20173;-39
2023/05/25 02:30:34;;;;;;;;;;;15.70;99.90;;;;;;5031347;28;19959;-39
2023/05/25 02:33:01;;;;;;;;;;;15.70;99.90;;;;;;5031055;28;20382;-39
2023/05/25 02:35:26;;;;;;;;;;;15.70;99.90;;;;;;5031040;28;19916;-39
2023/05/25 02:37:52;;;;;;;;;;;15.70;99.90;;;;;;5030562;28;19905;-39
2023/05/25 02:40:17;;;;;;;;;;;15.80;99.90;;;;;;5030954;28;20379;-39
2023/05/25 02:42:43;;;;;;;;;;;15.80;99.90;;;;;;5033955;28;19941;-39
2023/05/25 02:45:11;;;;;;;;;;;15.70;99.90;;;;;;5035308;28;19909;-39
2023/05/25 02:47:37;;;;;;;;;;;15.70;99.90;;;;;;5034248;28;20375;-39
2023/05/25 02:50:03;;;;;;;;;;;15.70;99.90;;;;;;5034691;28;19912;-40
2023/05/25 02:52:30;;;;;;;;;;;15.70;99.90;;;;;;5034711;28;19905;-38
2023/05/25 02:54:56;;;;;;;;;;;15.70;99.90;;;;;;5034492;28;19992;-39
2023/05/25 02:57:22;;;;;;;;;;;15.70;99.90;;;;;;5034097;28;20000;-40
2023/05/25 02:59:47;;;;;;;;;;;15.70;99.90;;;;;;5034804;28;19916;-38
2023/05/25 03:02:13;;;;;;;;;;;15.70;99.90;;;;;;5034513;28;20282;-39
2023/05/25 03:04:40;;;;;;;;;;;15.70;99.90;;;;;;5034411;28;19912;-39
2023/05/25 03:07:06;;;;;;;;;;;15.70;99.90;;;;;;5034308;28;19908;-40
2023/05/25 03:09:31;;;;;;;;;;;15.70;99.90;;;;;;5034222;28;19993;-39
2023/05/25 03:11:57;;;;;;;;;;;15.70;99.90;;;;;;5034359;28;19913;-39
2023/05/25 03:14:22;;;;;;;;;;;15.70;99.90;;;;;;5034408;28;20271;-38
2023/05/25 03:16:48;;;;;;;;;;;15.70;99.90;;;;;;5033745;28;19909;-39
2023/05/25 03:19:13;;;;;;;;;;;15.70;99.90;;;;;;5034545;28;19944;-39
2023/05/25 03:21:39;;;;;;;;;;;15.70;99.90;;;;;;5034167;28;20306;-39
2023/05/25 03:24:05;;;;;;;;;;;15.70;99.90;;;;;;5033958;28;19904;-39
2023/05/25 03:26:31;;;;;;;;;;;15.60;99.90;;;;;;5033806;28;20279;-39
2023/05/25 03:28:56;;;;;;;;;;;15.60;99.90;;;;;;5034063;28;19905;-39
2023/05/25 03:31:22;;;;;;;;;;;15.70;99.90;;;;;;5034052;28;19963;-39
2023/05/25 03:33:47;;;;;;;;;;;15.70;99.90;;;;;;5033886;28;20267;-39
2023/05/25 03:36:16;;;;;;;;;;;15.60;99.90;;;;;;5033386;28;20144;-40
2023/05/25 03:38:42;;;;;;;;;;;15.60;99.90;;;;;;5033711;28;19912;-40
2023/05/25 03:41:07;;;;;;;;;;;15.60;99.90;;;;;;5033746;28;19987;-40
2023/05/25 03:43:33;;;;;;;;;;;15.60;99.90;;;;;;5033738;28;20007;-39
2023/05/25 03:45:58;;;;;;;;;;;15.60;99.90;;;;;;5033360;28;19913;-39
2023/05/25 03:48:24;;;;;;;;;;;15.60;99.90;;;;;;5033755;28;19908;-41
2023/05/25 03:50:50;;;;;;;;;;;15.60;99.90;;;;;;5033645;28;20359;-39
2023/05/25 03:53:15;;;;;;;;;;;15.60;99.90;;;;;;5033364;28;19909;-39
2023/05/25 03:55:41;;;;;;;;;;;15.50;99.90;;;;;;5033435;28;20002;-39
2023/05/25 03:58:08;;;;;;;;;;;15.50;99.90;;;;;;5033181;28;19909;-40
2023/05/25 04:00:35;;;;;;;;;;;15.50;99.90;;;;;;5033473;28;19970;-39
2023/05/25 04:03:01;;;;;;;;;;;15.50;99.90;;;;;;5015523;28;20008;-39
2023/05/25 04:05:26;;;;;;;;;;;15.50;99.90;;;;;;5033258;28;20027;-40
2023/05/25 04:07:52;;;;;;;;;;;15.50;99.90;;;;;;5032733;28;19905;-37
2023/05/25 04:10:17;;;;;;;;;;;15.50;99.90;;;;;;5033338;28;20274;-39
2023/05/25 04:12:43;;;;;;;;;;;15.60;99.90;;;;;;5033307;28;20492;-39
2023/05/25 04:15:09;;;;;;;;;;;15.50;99.90;;;;;;5033216;28;19905;-40
2023/05/25 04:17:35;;;;;;;;;;;15.50;99.90;;;;;;5032697;28;19911;-39
2023/05/25 04:20:01;;;;;;;;;;;15.50;99.90;;;;;;5033119;28;19944;-39
2023/05/25 04:22:26;;;;;;;;;;;15.50;99.90;;;;;;5033070;28;19909;-40
2023/05/25 04:24:52;;;;;;;;;;;15.50;99.90;;;;;;5015178;28;20358;-40
2023/05/25 04:27:19;;;;;;;;;;;15.50;99.90;;;;;;5032370;28;19909;-39
2023/05/25 04:29:45;;;;;;;;;;;15.50;99.90;;;;;;5032905;28;19913;-39
2023/05/25 04:32:13;;;;;;;;;;;15.40;99.90;;;;;;5032837;28;20340;-39
2023/05/25 04:34:41;;;;;;;;;;;15.40;99.90;;;;;;5032717;28;20362;-38
2023/05/25 04:37:07;;;;;;;;;;;15.40;99.90;;;;;;5032166;28;19951;-39
2023/05/25 04:39:33;;;;;;;;;;;15.40;99.90;;;;;;5033037;28;19959;-39
2023/05/25 04:42:03;;;;;;;;;;;15.40;99.90;;;;;;5032710;28;19940;-39
2023/05/25 04:44:31;;;;;;;;;;;15.40;99.90;;;;;;5032498;28;20004;-41
2023/05/25 04:46:58;;;;;;;;;;;15.40;99.90;;;;;;5032025;28;20267;-39
2023/05/25 04:49:25;;;;;;;;;;;15.40;99.90;;;;;;5032473;28;19909;-39
2023/05/25 04:51:51;;;;;;;;;;;15.50;99.90;;;;;;5032467;28;20063;-38
2023/05/25 04:54:16;;;;;;;;;;;15.40;99.90;;;;;;5032401;28;19996;-39
2023/05/25 04:56:42;;;;;;;;;;;15.40;99.90;;;;;;5032001;28;19912;-39
2023/05/25 04:59:07;;;;;;;;;;;15.40;99.90;;;;;;5032302;28;20333;-39
2023/05/25 05:01:39;;;;;;;;;;;15.50;99.90;;;;;;5032252;28;20016;-40
2023/05/25 05:04:05;;;;;;;;;;;15.40;99.90;;;;;;5031602;28;20302;-39
2023/05/25 05:06:31;;;;;;;;;;;15.40;99.90;;;;;;5031618;28;19913;-40
2023/05/25 05:08:56;;;;;;;;;;;15.40;99.90;;;;;;5032172;28;19912;-39
2023/05/25 05:11:22;;;;;;;;;;;15.40;99.90;;;;;;5032115;28;20263;-39
2023/05/25 05:13:48;;;;;;;;;;;15.40;99.90;;;;;;5032319;28;19905;-39
2023/05/25 05:16:13;;;;;;;;;;;15.40;99.90;;;;;;5031538;28;19905;-39
2023/05/25 05:18:39;;;;;;;;;;;15.40;99.90;;;;;;5031845;28;19905;-41
2023/05/25 05:21:04;;;;;;;;;;;15.40;99.90;;;;;;5032018;28;19972;-39
2023/05/25 05:23:30;;;;;;;;;;;15.40;99.90;;;;;;5031907;28;19920;-39
2023/05/25 05:25:55;;;;;;;;;;;15.40;99.90;;;;;;5031490;28;19913;-40
2023/05/25 05:28:21;;;;;;;;;;;15.40;99.90;;;;;;5031735;28;19905;-40
2023/05/25 05:30:46;;;;;;;;;;;15.50;99.90;;;;;;5031807;28;19999;-39
2023/05/25 05:33:12;;;;;;;;;;;15.40;99.90;;;;;;5031619;28;19967;-39
2023/05/25 05:35:38;;;;;;;;;;;15.40;99.90;;;;;;5031841;28;19905;-38
2023/05/25 05:38:03;;;;;;;;;;;15.50;99.90;;;;;;5031257;28;20043;-39
2023/05/25 05:40:29;;;;;;;;;;;15.50;99.90;;;;;;5031819;28;19909;-40
2023/05/25 05:42:54;;;;;;;;;;;15.40;99.90;;;;;;5031485;28;19905;-39
2023/05/25 05:45:20;;;;;;;;;;;15.40;99.90;;;;;;5031655;28;19917;-39
2023/05/25 05:47:45;;;;;;;;;;;15.50;99.90;;;;;;5030936;28;19913;-40
2023/05/25 05:50:11;;;;;;;;;;;15.40;99.90;;;;;;5031601;28;20358;-39
2023/05/25 05:52:36;;;;;;;;;;;15.50;99.90;;;;;;5031474;28;19916;-40
2023/05/25 05:55:02;;;;;;;;;;;15.40;99.90;;;;;;5031505;28;19912;-39
2023/05/25 05:57:28;;;;;;;;;;;15.40;99.90;;;;;;5030932;28;19909;-39
2023/05/25 05:59:53;;;;;;;;;;;15.40;99.90;;;;;;5031495;28;20362;-39
2023/05/25 06:02:19;;;;;;;;;;;15.50;99.90;;;;;;5031370;28;19905;-39
2023/05/25 06:04:44;;;;;;;;;;;15.40;99.90;;;;;;5031342;28;20020;-39
2023/05/25 06:07:10;;;;;;;;;;;15.40;99.90;;;;;;5030903;28;19992;-39
2023/05/25 06:09:35;;;;;;;;;;;15.50;99.90;;;;;;5031537;28;19905;-39
2023/05/25 06:12:02;;;;;;;;;;;15.40;99.90;;;;;;5031481;28;19904;-39
2023/05/25 06:14:27;;;;;;;;;;;15.40;99.90;;;;;;5031318;28;19917;-38
2023/05/25 06:16:53;;;;;;;;;;;15.50;99.90;;;;;;5032568;28;19909;-39
2023/05/25 06:19:18;;;;;;;;;;;15.50;99.90;;;;;;5035296;28;19905;-39
2023/05/25 06:21:44;;;;;;;;;;;15.50;99.90;;;;;;5035348;28;19955;-38
2023/05/25 06:24:09;;;;;;;;;;;15.50;99.90;;;;;;5035218;28;20016;-39
2023/05/25 06:26:35;;;;;;;;;;;15.50;99.90;;;;;;5034546;28;19963;-41
2023/05/25 06:29:00;;;;;;;;;;;15.50;99.90;;;;;;5035260;28;19909;-39
2023/05/25 06:31:26;;;;;;;;;;;15.50;99.90;;;;;;5035555;28;20266;-40
2023/05/25 06:33:51;;;;;;;;;;;15.50;99.90;;;;;;5035044;28;19905;-39
2023/05/25 06:36:17;;;;;;;;;;;15.50;99.90;;;;;;5034534;28;19905;-39
2023/05/25 06:38:42;;;;;;;;;;;15.50;99.90;;;;;;5034983;28;19905;-38
2023/05/25 06:41:11;;;;;;;;;;;15.60;99.90;;;;;;5035065;28;20405;-40
2023/05/25 06:43:36;;;;;;;;;;;15.60;99.90;;;;;;5034712;28;19913;-39
2023/05/25 06:46:04;;;;;;;;;;;15.60;99.90;;;;;;5034245;28;20005;-39
2023/05/25 06:48:30;;;;;;;;;;;15.60;99.90;;;;;;5034673;28;19945;-39
2023/05/25 06:50:55;;;;;;;;;;;15.60;99.90;;;;;;5034714;28;19936;-39
2023/05/25 06:53:21;;;;;;;;;;;15.70;99.90;;;;;;5034630;28;19912;-39
2023/05/25 06:55:48;;;;;;;;;;;15.60;99.90;;;;;;5016625;28;19905;-39
2023/05/25 06:58:13;;;;;;;;;;;15.70;99.90;;;;;;5034392;28;19988;-41
2023/05/25 07:00:39;;;;;;;;;;;15.60;99.90;;;;;;5034491;28;20363;-38
2023/05/25 07:03:04;;;;;;;;;;;15.70;99.90;;;;;;5034357;28;19992;-39
2023/05/25 07:05:30;;;;;;;;;;;15.70;99.90;;;;;;5016560;28;20283;-39
2023/05/25 07:07:55;;;;;;;;;;;15.70;99.90;;;;;;5033879;28;19909;-39
2023/05/25 07:10:21;;;;;;;;;;;15.70;99.90;;;;;;5034508;28;19913;-39
2023/05/25 07:12:47;;;;;;;;;;;15.70;99.90;;;;;;5034328;28;19905;-39
2023/05/25 07:15:14;;;;;;;;;;;15.70;99.90;;;;;;5034089;28;19959;-39
2023/05/25 07:17:39;;;;;;;;;;;15.70;99.90;;;;;;5033723;28;19909;-39
2023/05/25 07:20:05;;;;;;;;;;;15.70;99.90;;;;;;5034258;28;19912;-40
2023/05/25 07:22:30;;;;;;;;;;;15.70;99.90;;;;;;5034193;28;20442;-39
2023/05/25 07:24:56;;;;;;;;;;;15.70;99.90;;;;;;5034037;28;20371;-39
2023/05/25 07:27:25;;;;;;;;;;;15.80;99.90;;;;;;5033055;28;19917;-39
2023/05/25 07:29:50;;;;;;;;;;;15.80;99.90;;;;;;5033898;28;19915;-39
2023/05/25 07:32:15;;;;;;;;;;;15.80;99.90;;;;;;5034009;28;19905;-38
2023/05/25 07:34:41;;;;;;;;;;;15.80;99.90;;;;;;5033839;28;20758;-39
2023/05/25 07:37:06;;;;;;;;;;;15.80;99.90;;;;;;5033428;28;19920;-39
2023/05/25 07:39:32;;;;;;;;;;;15.80;99.90;;;;;;5033891;28;19956;-39
2023/05/25 07:41:57;;;;;;;;;;;15.80;99.90;;;;;;5033782;28;19987;-39
2023/05/25 07:44:23;;;;;;;;;;;15.80;99.90;;;;;;5033935;28;20334;-39
2023/05/25 07:46:48;;;;;;;;;;;15.80;99.90;;;;;;5033161;28;19932;-39
2023/05/25 07:49:17;;;;;;;;;;;15.80;99.90;;;;;;5033717;28;19904;-38
2023/05/25 07:51:43;;;;;;;;;;;15.80;99.90;;;;;;5033578;28;20023;-39
2023/05/25 07:54:09;;;;;;;;;;;15.80;99.90;;;;;;5033638;28;19905;-40
2023/05/25 07:56:34;;;;;;;;;;;15.80;99.90;;;;;;5032983;28;20370;-38
2023/05/25 07:59:00;;;;;;;;;;;15.90;99.90;;;;;;5033349;28;19909;-39
2023/05/25 08:01:26;;;;;;;;;;;15.90;99.90;;;;;;5033386;28;20299;-38
2023/05/25 08:03:51;;;;;;;;;;;15.90;99.90;;;;;;5033349;28;19909;-39
2023/05/25 08:06:17;;;;;;;;;;;15.90;99.90;;;;;;5033060;28;19909;-39
2023/05/25 08:08:43;;;;;;;;;;;15.90;99.90;;;;;;5033631;28;19912;-39
2023/05/25 08:11:10;;;;;;;;;;;15.90;99.90;;;;;;5033294;28;20000;-39
2023/05/25 08:13:35;;;;;;;;;;;15.90;99.90;;;;;;5033065;28;19905;-39
2023/05/25 08:16:01;;;;;;;;;;;15.90;99.90;;;;;;5032834;28;20267;-39
2023/05/25 08:18:26;;;;;;;;;;;15.90;99.90;;;;;;5033249;28;19995;-40
2023/05/25 08:20:52;;;;;;;;;;;16.00;99.90;;;;;;5033059;28;19932;-38
2023/05/25 08:23:17;;;;;;;;;;;16.00;99.90;;;;;;5033003;28;19912;-39
2023/05/25 08:25:43;;;;;;;;;;;16.00;99.90;;;;;;5032766;28;19905;-39
2023/05/25 08:28:08;;;;;;;;;;;16.00;99.90;;;;;;5032386;28;20044;-40
2023/05/25 08:30:34;;;;;;;;;;;16.00;99.90;;;;;;5032833;28;20050;-39
2023/05/25 08:32:59;;;;;;;;;;;16.00;99.90;;;;;;5032754;28;19908;-37
2023/05/25 08:35:25;;;;;;;;;;;16.00;99.90;;;;;;5032775;28;19999;-44
2023/05/25 08:37:51;;;;;;;;;;;16.10;99.90;;;;;;5032225;28;20371;-44
2023/05/25 08:40:17;;;;;;;;;;;16.10;99.90;;;;;;5031850;28;19999;-47
2023/05/25 08:42:43;;;;;;;;;;;16.00;99.90;;;;;;5032472;28;19909;-41
2023/05/25 08:45:09;;;;;;;;;;;16.10;99.90;;;;;;5032621;28;19911;-41
2023/05/25 08:47:38;;;;;;;;;;;16.10;99.90;;;;;;5032149;28;19909;-41
2023/05/25 08:50:04;;;;;;;;;;;16.20;99.90;;;;;;5032457;28;19981;-42
2023/05/25 08:52:32;;;;;;;;;;;16.20;99.90;;;;;;5032386;28;20421;-41
2023/05/25 08:55:01;;;;;;;;;;;16.20;99.90;;;;;;5032387;28;20451;-40
2023/05/25 08:57:53;;;;;;;;;;;16.20;99.90;;;;;;5031718;28;19909;-41
2023/05/25 09:00:20;;;;;;;;;;;16.20;99.90;;;;;;5028202;28;20286;-40
2023/05/25 09:02:52;;;;;;;;;;;16.30;99.90;;;;;;5032349;28;20306;-41
2023/05/25 09:05:18;;;;;;;;;;;16.30;99.90;;;;;;5032171;28;19996;-40
2023/05/25 09:07:43;;;;;;;;;;;16.30;99.90;;;;;;5031565;28;20035;-43
2023/05/25 09:10:10;;;;;;;;;;;16.30;99.90;;;;;;5032093;28;19995;-41
2023/05/25 09:12:36;;;;;;;;;;;16.30;99.90;;;;;;5032178;28;19963;-41
2023/05/25 09:15:02;;;;;;;;;;;16.30;99.90;;;;;;5032134;28;19912;-46
2023/05/25 09:17:28;;;;;;;;;;;16.40;99.90;;;;;;5031531;28;19908;-41
2023/05/25 09:19:53;;;;;;;;;;;16.40;99.90;;;;;;5032095;28;19905;-40
2023/05/25 09:22:19;;;;;;;;;;;16.40;99.90;;;;;;5031880;28;19912;-41
2023/05/25 09:24:44;;;;;;;;;;;16.40;99.90;;;;;;5031829;28;19916;-41
2023/05/25 09:27:11;;;;;;;;;;;16.40;99.90;;;;;;5031303;28;19913;-43
2023/05/25 09:29:36;;;;;;;;;;;16.50;99.90;;;;;;5031911;28;19905;-40
2023/05/25 09:32:03;;;;;;;;;;;16.50;99.90;;;;;;5032145;28;19912;-42
2023/05/25 09:34:30;;;;;;;;;;;16.50;99.90;;;;;;5031699;28;19913;-41
2023/05/25 09:36:55;;;;;;;;;;;16.50;99.90;;;;;;5031131;28;19905;-39
2023/05/25 09:39:21;;;;;;;;;;;16.50;99.90;;;;;;5031750;28;19905;-40
2023/05/25 09:41:46;;;;;;;;;;;16.50;99.90;;;;;;5031602;28;19967;-41
2023/05/25 09:44:12;;;;;;;;;;;16.60;99.90;;;;;;5031490;28;19919;-41
2023/05/25 09:46:38;;;;;;;;;;;16.60;99.90;;;;;;5031029;28;19909;-41
2023/05/25 09:49:04;;;;;;;;;;;16.60;99.90;;;;;;5031622;28;19905;-40
2023/05/25 09:51:32;;;;;;;;;;;16.60;99.90;;;;;;5031451;28;19908;-40
2023/05/25 09:54:01;;;;;;;;;;;16.60;99.90;;;;;;5031427;28;19951;-40
2023/05/25 09:56:29;;;;;;;;;;;16.70;99.90;;;;;;5031100;28;19912;-39
2023/05/25 09:58:55;;;;;;;;;;;16.70;99.90;;;;;;5031609;28;19909;-40
2023/05/25 10:01:20;;;;;;;;;;;16.70;99.90;;;;;;5031431;28;20366;-40
2023/05/25 10:03:49;;;;;;;;;;;16.70;99.90;;;;;;5031360;28;19996;-42
2023/05/25 10:06:15;;;;;;;;;;;16.70;99.90;;;;;;5030843;28;19913;-41
2023/05/25 10:08:44;;;;;;;;;;;16.70;99.90;;;;;;5031383;28;19935;-40
2023/05/25 10:11:13;;;;;;;;;;;16.70;99.90;;;;;;5031351;28;19905;-43
2023/05/25 10:13:39;;;;;;;;;;;16.70;99.90;;;;;;5031312;28;19905;-43
2023/05/25 10:16:07;;;;;;;;;;;16.70;99.90;;;;;;5030788;28;19906;-41
2023/05/25 10:18:34;;;;;;;;;;;16.70;99.90;;;;;;5031334;28;19905;-40
2023/05/25 10:21:01;;;;;;;;;;;16.70;99.90;;;;;;5031261;28;19905;-41
2023/05/25 10:23:31;;;;;;;;;;;16.70;99.90;;;;;;5031220;28;19905;-41
2023/05/25 10:25:59;;;;;;;;;;;16.70;99.90;;;;;;5030866;28;19920;-40
2023/05/25 10:28:29;;;;;;;;;;;16.70;99.90;;;;;;5031206;28;19905;-40
2023/05/25 10:30:58;;;;;;;;;;;16.70;99.90;;;;;;5031293;28;19948;-41
2023/05/25 10:33:24;;;;;;;;;;;16.80;99.90;;;;;;5031041;28;19959;-41
2023/05/25 10:35:50;;;;;;;;;;;16.80;99.90;;;;;;5030785;28;19905;-41
2023/05/25 10:38:18;;;;;;;;;;;16.80;99.90;;;;;;5031015;28;19905;-41
2023/05/25 10:40:47;;;;;;;;;;;16.80;99.90;;;;;;5031046;28;19909;-41
2023/05/25 10:43:13;;;;;;;;;;;16.80;99.90;;;;;;5030885;28;20000;-41
2023/05/25 10:45:40;;;;;;;;;;;16.80;99.90;;;;;;5030925;28;19905;-40
2023/05/25 10:48:06;;;;;;;;;;;16.80;99.90;;;;;;5030584;28;19905;-41
2023/05/25 10:50:33;;;;;;;;;;;16.80;99.90;;;;;;5030964;28;20003;-41
2023/05/25 10:53:00;;;;;;;;;;;16.80;99.90;;;;;;5030970;28;20000;-40
2023/05/25 10:55:30;;;;;;;;;;;16.80;99.90;;;;;;5030885;28;20359;-42
2023/05/25 10:58:11;;;;;;;;;;;16.80;99.90;;;;;;5030563;28;19905;-43
2023/05/25 11:00:37;;;;;;;;;;;16.80;99.90;;;;;;5030986;28;19905;-41
2023/05/25 11:03:03;;;;;;;;;;;16.80;99.90;;;;;;5032763;28;20018;-42
2023/05/25 11:05:36;;;;;;;;;;;16.80;99.90;;;;;;5034542;28;19923;-42
2023/05/25 11:08:11;;;;;;;;;;;16.80;99.90;;;;;;5033951;28;19955;-40
2023/05/25 11:10:42;;;;;;;;;;;16.80;99.90;;;;;;5034434;28;19905;-39
2023/05/25 11:13:20;;;;;;;;;;;16.80;99.90;;;;;;5034392;28;20327;-40
2023/05/25 11:15:47;;;;;;;;;;;16.90;99.90;;;;;;5034082;28;20413;-41
2023/05/25 11:18:15;;;;;;;;;;;16.80;99.90;;;;;;5034018;28;19905;-42
2023/05/25 11:20:40;;;;;;;;;;;16.80;99.90;;;;;;5034266;28;19937;-39
2023/05/25 11:23:22;;;;;;;;;;;16.80;99.90;;;;;;5034060;28;19948;-41
2023/05/25 11:25:47;;;;;;;;;;;16.80;99.90;;;;;;5033768;28;19909;-40
2023/05/25 11:28:14;;;;;;;;;;;16.90;99.90;;;;;;5033939;28;19905;-44
2023/05/25 11:30:41;;;;;;;;;;;16.80;99.90;;;;;;5034343;28;19916;-42
2023/05/25 11:33:07;;;;;;;;;;;16.90;99.90;;;;;;5033943;28;19905;-38
2023/05/25 11:35:36;;;;;;;;;;;16.90;99.90;;;;;;5033942;28;19905;-41
2023/05/25 11:38:05;;;;;;;;;;;16.90;99.90;;;;;;5033331;28;20389;-40
2023/05/25 11:40:31;;;;;;;;;;;16.90;99.90;;;;;;5034037;28;20003;-40
2023/05/25 11:42:59;;;;;;;;;;;16.90;99.90;;;;;;5033629;28;20426;-39
2023/05/25 11:45:27;;;;;;;;;;;16.90;99.90;;;;;;5034123;28;20373;-41
2023/05/25 11:47:52;;;;;;;;;;;16.90;99.90;;;;;;5033152;28;19909;-41
2023/05/25 11:50:18;;;;;;;;;;;16.90;99.90;;;;;;5033566;28;19909;-44
2023/05/25 11:52:43;;;;;;;;;;;16.90;99.90;;;;;;5033580;28;19905;-41
2023/05/25 11:55:15;;;;;;;;;;;16.90;99.90;;;;;;5033838;28;19909;-41
2023/05/25 11:57:40;;;;;;;;;;;16.90;99.90;;;;;;5033083;28;19912;-42
2023/05/25 12:00:10;;;;;;;;;;;16.90;99.90;;;;;;5033569;28;20329;-41
2023/05/25 12:02:36;;;;;;;;;;;16.90;99.90;;;;;;5033475;28;20370;-43
2023/05/25 12:05:02;;;;;;;;;;;16.90;99.90;;;;;;5033276;28;20378;-46
2023/05/25 12:07:28;;;;;;;;;;;16.90;99.90;;;;;;5033127;28;19920;-40
2023/05/25 12:10:04;;;;;;;;;;;16.90;99.90;;;;;;5033342;28;19912;-42
2023/05/25 12:12:35;;;;;;;;;;;17.00;99.90;;;;;;5033304;28;20290;-42
2023/05/25 12:15:01;;;;;;;;;;;16.90;99.90;;;;;;5031923;28;19909;-42
2023/05/25 12:17:27;;;;;;;;;;;16.90;99.90;;;;;;5032617;28;19912;-43
2023/05/25 12:19:52;;;;;;;;;;;16.90;99.90;;;;;;5033087;28;19916;-41
2023/05/25 12:22:18;;;;;;;;;;;17.00;99.90;;;;;;5033016;28;19909;-40
2023/05/25 12:24:43;;;;;;;;;;;17.00;99.90;;;;;;5032980;28;20278;-43
2023/05/25 12:27:15;;;;;;;;;;;17.00;99.90;;;;;;5032521;28;20275;-45
2023/05/25 12:29:47;;;;;;;;;;;17.00;99.90;;;;;;5032982;28;20090;-43
2023/05/25 12:32:13;;;;;;;;;;;17.00;99.90;;;;;;5032844;28;19909;-39
2023/05/25 12:34:38;;;;;;;;;;;17.00;99.90;;;;;;5032939;28;19931;-42
2023/05/25 12:37:04;;;;;;;;;;;17.00;99.90;;;;;;5032251;28;19916;-40
2023/05/25 12:39:29;;;;;;;;;;;17.00;99.90;;;;;;5032726;28;19951;-40
2023/05/25 12:41:55;;;;;;;;;;;17.00;99.90;;;;;;5032660;28;20282;-42
2023/05/25 12:44:21;;;;;;;;;;;17.00;99.90;;;;;;5032412;28;19967;-44
2023/05/25 12:46:47;;;;;;;;;;;17.00;99.90;;;;;;5032018;28;20022;-43
2023/05/25 12:49:26;;;;;;;;;;;17.00;99.90;;;;;;5032544;28;20278;-41
2023/05/25 12:51:52;;;;;;;;;;;17.00;99.90;;;;;;5032479;28;19913;-39
2023/05/25 12:54:34;;;;;;;;;;;17.00;99.90;;;;;;5015115;28;19912;-41
2023/05/25 12:57:01;;;;;;;;;;;17.00;99.90;;;;;;5031865;28;20385;-43
2023/05/25 12:59:27;;;;;;;;;;;17.00;99.90;;;;;;5032462;28;19907;-41
2023/05/25 13:01:52;;;;;;;;;;;17.00;99.90;;;;;;5032376;28;19909;-46
2023/05/25 13:04:18;;;;;;;;;;;17.00;99.90;;;;;;5032335;28;19905;-42
2023/05/25 13:06:43;;;;;;;;;;;17.00;99.90;;;;;;5031628;28;19908;-44
2023/05/25 13:09:09;;;;;;;;;;;17.00;99.90;;;;;;5032708;28;19905;-44
2023/05/25 13:11:34;;;;;;;;;;;17.00;99.90;;;;;;5032162;28;20027;-41
2023/05/25 13:14:00;;;;;;;;;;;17.00;99.90;;;;;;5032080;28;19909;-41
2023/05/25 13:16:26;;;;;;;;;;;17.00;99.90;;;;;;5031541;28;19915;-42
2023/05/25 13:18:52;;;;;;;;;;;17.00;99.90;;;;;;5032075;28;19931;-41
2023/05/25 13:21:17;;;;;;;;;;;17.00;99.90;;;;;;5031972;28;20422;-40
2023/05/25 13:23:43;;;;;;;;;;;17.10;99.90;;;;;;5031950;28;20358;-43
2023/05/25 13:26:09;;;;;;;;;;;17.00;99.90;;;;;;5030837;28;19909;-41
2023/05/25 13:28:34;;;;;;;;;;;17.10;99.90;;;;;;5032102;28;20282;-41
2023/05/25 13:31:00;;;;;;;;;;;17.10;99.90;;;;;;5031884;28;19904;-40
2023/05/25 13:33:25;;;;;;;;;;;17.10;99.90;;;;;;5031733;28;19905;-39
2023/05/25 13:35:57;;;;;;;;;;;17.10;99.90;;;;;;5031362;28;19952;-43
2023/05/25 13:38:23;;;;;;;;;;;17.10;99.90;;;;;;5031611;28;19909;-41
2023/05/25 13:40:49;;;;;;;;;;;17.10;99.90;;;;;;5031578;28;20374;-41
2023/05/25 13:43:14;;;;;;;;;;;17.10;99.90;;;;;;5032100;28;19920;-40
2023/05/25 13:45:40;;;;;;;;;;;17.10;99.90;;;;;;5031504;28;19905;-41
2023/05/25 13:48:05;;;;;;;;;;;17.10;99.90;;;;;;5031146;28;19909;-40
2023/05/25 13:50:31;;;;;;;;;;;17.10;99.90;;;;;;5031570;28;19916;-41
2023/05/25 13:52:56;;;;;;;;;;;17.10;99.90;;;;;;5031432;28;19909;-41
2023/05/25 13:55:22;;;;;;;;;;;17.10;99.90;;;;;;5031431;28;19905;-41
2023/05/25 13:57:48;;;;;;;;;;;17.10;99.90;;;;;;5031125;28;19971;-40
2023/05/25 14:00:14;;;;;;;;;;;17.10;99.90;;;;;;5031583;28;19913;-41
2023/05/25 14:02:39;;;;;;;;;;;17.10;99.90;;;;;;5031369;28;19905;-41
2023/05/25 14:05:05;;;;;;;;;;;17.10;99.90;;;;;;5031741;28;19948;-41
2023/05/25 14:07:31;;;;;;;;;;;17.10;99.90;;;;;;5030827;28;19909;-41
2023/05/25 14:09:57;;;;;;;;;;;17.10;99.90;;;;;;5031245;28;19951;-40
2023/05/25 14:12:22;;;;;;;;;;;17.10;99.90;;;;;;5031372;28;19909;-41